Hartford, Alabama
Current Conditions -  °F | °C
As of 9:58 AM on Thursday 29 Jan 2015 (Local Time) from KOZR Reporting Station
Clear Clear  
Wind Chill: 55°   Ceiling: Unl
Heat Index: 55°   Visibility: 10mi
Dew Point: 40°   Wind: 13mph
Humidity: 56%   Direction: 170°S
Pressure: 30.32"   Gusts: NA
Location:  31.1°N, 85.7°W
Report Text: KOZR 291558Z AUTO 17011KT 10SM CLR 13/04 A3032 RMK AO2 SLP270 T01270042
Loading
Personal Weather Stations






























Interactive Weather Map New forecast layout! Learn more

10-Day Weather Forecast

Advertisements
Track Severe Weather on mobile